Terminal Aerodrome Forecast
Issued by NWS Sterling, VA

Current Version | Previous Version | Text Only | Print | Product List | Glossary Off
Versions: 1 2 3 4 5 6 7 8 9 10 11 12 13 14 15 16 17 18 19 20 21 22 23 24 25 26 27 28

000
FTUS41 KLWX 161900 AAA
TAFIAD
TAF AMD
KIAD 161957Z 1620/1724 11004KT 2SM -RA BR SCT005 BKN050 OVC090
     FM162200 21006KT 5SM BR OVC050
     FM170300 24004KT P6SM BKN050
     FM170500 25005KT P6SM SCT050
     FM171400 29013G22KT P6SM SCT250
     FM172300 29009KT P6SM FEW250=

USA.gov is the U.S. government's official web portal to all federal, state and local government web resources and services.